createdAt,value
2019-03-28T00:00:37.945Z,8.53
2019-03-28T00:03:06.480Z,8.27
2019-03-28T00:05:35.235Z,9.23
2019-03-28T00:08:05.127Z,8.53
2019-03-28T00:10:34.037Z,8.40
2019-03-28T00:13:03.003Z,7.67
2019-03-28T00:15:31.807Z,8.93
2019-03-28T00:18:01.142Z,8.87
2019-03-28T00:20:30.109Z,8.17
2019-03-28T00:23:07.273Z,8.57
2019-03-28T00:25:36.083Z,7.80
2019-03-28T00:28:04.733Z,9.90
2019-03-28T00:30:33.767Z,8.37
2019-03-28T00:33:03.088Z,9.20
2019-03-28T00:35:31.734Z,8.97
2019-03-28T00:38:01.047Z,9.47
2019-03-28T00:40:32.777Z,9.67
2019-03-28T00:43:02.025Z,10.23
2019-03-28T00:45:31.244Z,8.67
2019-03-28T00:47:59.865Z,9.20
2019-03-28T00:50:29.083Z,9.87
2019-03-28T00:52:57.747Z,8.13
2019-03-28T00:55:27.855Z,9.17
2019-03-28T00:57:57.058Z,9.27
2019-03-28T01:00:26.333Z,8.83
2019-03-28T01:02:55.291Z,9.93
2019-03-28T01:05:24.206Z,9.23
2019-03-28T01:07:53.088Z,8.13
2019-03-28T01:10:22.198Z,8.93
2019-03-28T01:12:50.999Z,8.50
2019-03-28T01:15:20.158Z,9.37
2019-03-28T01:17:48.934Z,7.93
2019-03-28T01:20:17.283Z,8.03
2019-03-28T01:22:46.099Z,9.40
2019-03-28T01:25:15.658Z,8.20
2019-03-28T01:27:44.899Z,7.87
2019-03-28T01:30:13.761Z,7.80
2019-03-28T01:32:42.588Z,9.13
2019-03-28T01:35:11.256Z,9.13
2019-03-28T01:37:39.592Z,7.90
2019-03-28T01:40:08.335Z,9.73
2019-03-28T01:42:37.319Z,10.10
2019-03-28T01:45:08.333Z,9.63
2019-03-28T01:47:38.995Z,9.03
2019-03-28T01:50:07.544Z,11.10
2019-03-28T01:52:36.668Z,10.33
2019-03-28T01:55:05.541Z,12.23
2019-03-28T01:57:34.047Z,9.30
2019-03-28T02:00:02.947Z,9.27
2019-03-28T02:02:32.328Z,9.70
2019-03-28T02:05:00.624Z,10.27
2019-03-28T02:07:29.098Z,9.33
2019-03-28T02:09:58.179Z,9.50
2019-03-28T02:12:28.324Z,11.07
2019-03-28T02:14:57.443Z,9.83
2019-03-28T02:17:26.704Z,9.17
2019-03-28T02:19:55.904Z,9.63
2019-03-28T02:22:25.019Z,8.63
2019-03-28T02:24:54.200Z,9.47
2019-03-28T02:27:24.237Z,9.80
2019-03-28T02:29:53.711Z,9.47
2019-03-28T02:32:26.313Z,9.83
2019-03-28T02:34:55.421Z,8.70
2019-03-28T02:37:24.052Z,7.93
2019-03-28T02:39:53.385Z,9.17
2019-03-28T02:42:22.041Z,8.70
2019-03-28T02:44:51.492Z,9.00
2019-03-28T02:47:20.756Z,9.00
2019-03-28T02:49:49.047Z,10.27
2019-03-28T02:52:18.049Z,10.20
2019-03-28T02:54:47.350Z,9.37
2019-03-28T02:57:16.009Z,9.63
2019-03-28T02:59:44.811Z,9.43
2019-03-28T03:02:13.925Z,9.27
2019-03-28T03:04:42.596Z,11.00
2019-03-28T03:07:11.261Z,9.60
2019-03-28T03:09:40.106Z,11.10
2019-03-28T03:12:09.267Z,9.77
2019-03-28T03:14:41.245Z,10.43
2019-03-28T03:17:10.346Z,8.57
2019-03-28T03:19:39.023Z,9.27
2019-03-28T03:22:08.798Z,9.83
2019-03-28T03:24:37.616Z,11.50
2019-03-28T03:27:06.913Z,10.27
2019-03-28T03:29:35.586Z,9.97
2019-03-28T03:32:04.590Z,8.37
2019-03-28T03:34:33.686Z,8.57
2019-03-28T03:37:03.814Z,8.50
2019-03-28T03:39:33.400Z,8.50
2019-03-28T03:42:03.326Z,8.37
2019-03-28T03:44:32.025Z,8.67
2019-03-28T03:47:01.333Z,8.40
2019-03-28T03:49:30.684Z,7.97
2019-03-28T03:51:59.262Z,8.13
2019-03-28T03:54:28.305Z,8.00
2019-03-28T03:56:57.391Z,7.33
2019-03-28T03:59:26.558Z,8.23
2019-03-28T04:01:55.259Z,9.50
2019-03-28T04:04:24.063Z,8.33
2019-03-28T04:06:53.279Z,8.20
2019-03-28T04:09:21.897Z,9.47
2019-03-28T04:11:51.020Z,9.47
2019-03-28T04:14:19.600Z,9.43
2019-03-28T04:16:48.415Z,10.30
2019-03-28T04:19:17.625Z,9.87
2019-03-28T04:21:46.246Z,10.93
2019-03-28T04:24:15.424Z,9.77
2019-03-28T04:26:44.588Z,10.13
2019-03-28T04:29:13.325Z,8.80
2019-03-28T04:31:42.507Z,7.97
2019-03-28T04:34:11.854Z,8.30
2019-03-28T04:36:40.968Z,12.17
2019-03-28T04:39:10.474Z,9.93
2019-03-28T04:41:39.118Z,9.53
2019-03-28T04:44:07.971Z,8.90
2019-03-28T04:46:36.940Z,8.97
2019-03-28T04:49:06.226Z,8.43
2019-03-28T04:51:35.434Z,9.20
2019-03-28T04:54:04.083Z,9.43
2019-03-28T04:56:32.939Z,10.27
2019-03-28T04:59:02.420Z,8.60
2019-03-28T05:01:31.755Z,8.23
2019-03-28T05:04:00.704Z,9.17
2019-03-28T05:06:29.176Z,9.10
2019-03-28T05:08:58.295Z,10.27
2019-03-28T05:11:27.166Z,9.77
2019-03-28T05:13:56.016Z,10.03
2019-03-28T05:16:25.033Z,10.13
2019-03-28T05:18:54.193Z,9.90
2019-03-28T05:21:22.820Z,11.03
2019-03-28T05:23:52.519Z,10.13
2019-03-28T05:26:21.573Z,10.43
2019-03-28T05:28:57.497Z,12.07
2019-03-28T05:31:20.926Z,11.23
2019-03-28T05:33:49.963Z,11.60
2019-03-28T05:36:18.752Z,12.20
2019-03-28T05:38:47.816Z,10.60
2019-03-28T05:41:17.477Z,10.93
2019-03-28T05:43:46.844Z,10.63
2019-03-28T05:46:15.532Z,11.23
2019-03-28T05:48:44.189Z,11.00
2019-03-28T05:51:13.252Z,10.67
2019-03-28T05:53:43.980Z,10.73
2019-03-28T05:56:13.208Z,13.47
2019-03-28T05:58:41.703Z,14.53
2019-03-28T06:01:10.723Z,13.13
2019-03-28T06:03:39.891Z,15.57
2019-03-28T06:06:08.803Z,10.17
2019-03-28T06:08:37.827Z,10.20
2019-03-28T06:11:07.002Z,11.00
2019-03-28T06:13:35.998Z,9.80
2019-03-28T06:16:04.659Z,10.37
2019-03-28T06:18:33.523Z,9.67
2019-03-28T06:21:02.457Z,10.27
2019-03-28T06:23:31.490Z,13.23
2019-03-28T06:26:00.462Z,13.33
2019-03-28T06:28:29.299Z,11.87
2019-03-28T06:30:58.323Z,12.70
2019-03-28T06:33:27.627Z,12.03
2019-03-28T06:35:58.128Z,11.83
2019-03-28T06:38:26.516Z,13.27
2019-03-28T06:40:55.375Z,12.53
2019-03-28T06:43:24.310Z,12.47
2019-03-28T06:45:53.308Z,12.00
2019-03-28T06:48:22.015Z,13.50
2019-03-28T06:50:51.013Z,11.43
2019-03-28T06:53:20.052Z,11.10
2019-03-28T06:55:49.001Z,11.33
2019-03-28T06:58:17.984Z,13.70
2019-03-28T07:00:47.189Z,13.13
2019-03-28T07:03:15.807Z,12.93
2019-03-28T07:05:44.887Z,12.97
2019-03-28T07:08:13.955Z,12.63
2019-03-28T07:10:43.160Z,12.53
2019-03-28T07:13:11.936Z,14.07
2019-03-28T07:15:41.150Z,13.80
2019-03-28T07:18:10.452Z,14.80
2019-03-28T07:20:39.534Z,14.30
2019-03-28T07:23:08.214Z,14.67
2019-03-28T07:25:37.219Z,15.90
2019-03-28T07:28:06.645Z,14.40
2019-03-28T07:30:35.532Z,14.77
2019-03-28T07:33:04.499Z,15.07
2019-03-28T07:35:33.701Z,13.73
2019-03-28T07:38:02.730Z,14.90
2019-03-28T07:40:33.505Z,15.33
2019-03-28T07:43:01.570Z,14.90
2019-03-28T07:45:30.542Z,16.23
2019-03-28T07:47:58.916Z,14.37
2019-03-28T07:50:28.101Z,19.62
2019-03-28T07:53:08.364Z,15.93
2019-03-28T07:55:36.943Z,15.07
2019-03-28T07:58:11.760Z,14.77
2019-03-28T08:00:43.830Z,15.03
2019-03-28T08:03:13.188Z,15.13
2019-03-28T08:05:42.279Z,15.27
2019-03-28T08:08:11.293Z,16.87
2019-03-28T08:10:40.466Z,15.17
2019-03-28T08:13:09.291Z,15.80
2019-03-28T08:15:38.248Z,16.33
2019-03-28T08:18:07.457Z,15.40
2019-03-28T08:20:36.167Z,14.73
2019-03-28T08:23:05.543Z,15.63
2019-03-28T08:25:34.104Z,15.00
2019-03-28T08:28:02.920Z,13.70
2019-03-28T08:30:36.300Z,14.73
2019-03-28T08:33:08.091Z,15.63
2019-03-28T08:35:37.224Z,14.60
2019-03-28T08:38:09.698Z,15.00
2019-03-28T08:40:39.815Z,13.63
2019-03-28T08:43:08.984Z,12.13
2019-03-28T08:45:38.061Z,13.63
2019-03-28T08:48:07.422Z,11.73
2019-03-28T08:50:36.386Z,9.80
2019-03-28T08:53:05.347Z,9.60
2019-03-28T08:55:34.657Z,8.70
2019-03-28T08:58:04.256Z,10.60
2019-03-28T09:00:51.648Z,10.13
2019-03-28T09:03:18.896Z,8.27
2019-03-28T09:05:58.484Z,11.33
2019-03-28T09:08:34.846Z,10.63
2019-03-28T09:11:11.172Z,9.80
2019-03-28T09:16:42.630Z,10.10
2019-03-28T09:22:12.951Z,10.60
2019-03-28T09:24:53.134Z,9.50
2019-03-28T09:27:29.935Z,10.00
2019-03-28T09:29:58.740Z,7.87
2019-03-28T09:32:28.141Z,8.47
2019-03-28T09:34:57.025Z,9.27
2019-03-28T09:37:25.920Z,9.07
2019-03-28T09:39:55.353Z,7.80
2019-03-28T09:42:26.179Z,7.53
2019-03-28T09:44:55.195Z,5.10
2019-03-28T09:47:25.060Z,7.83
2019-03-28T09:49:53.834Z,6.07
2019-03-28T09:52:22.750Z,7.77
2019-03-28T09:54:51.536Z,6.93
2019-03-28T09:57:20.744Z,8.40
2019-03-28T09:59:49.743Z,8.23
2019-03-28T10:02:18.480Z,7.83
2019-03-28T10:04:47.741Z,7.33
2019-03-28T10:07:17.127Z,8.63
2019-03-28T10:09:46.262Z,8.43
2019-03-28T10:12:14.901Z,7.10
2019-03-28T10:14:43.833Z,7.50
2019-03-28T10:17:12.764Z,8.83
2019-03-28T10:19:41.467Z,5.73
2019-03-28T10:22:10.682Z,6.43
2019-03-28T10:24:39.660Z,6.60
2019-03-28T10:27:08.293Z,8.43
2019-03-28T10:29:37.224Z,7.47
2019-03-28T10:32:06.540Z,9.30
2019-03-28T10:34:35.113Z,7.83
2019-03-28T10:37:03.768Z,6.23
2019-03-28T10:39:32.831Z,6.70
2019-03-28T10:42:01.879Z,7.87
2019-03-28T10:44:30.563Z,6.80
2019-03-28T10:46:59.502Z,7.57
2019-03-28T10:49:28.768Z,5.50
2019-03-28T10:51:57.468Z,6.57
2019-03-28T10:54:26.237Z,7.47
2019-03-28T10:56:57.912Z,6.93
2019-03-28T10:59:25.880Z,6.30
2019-03-28T11:01:54.262Z,7.37
2019-03-28T11:04:22.831Z,7.23
2019-03-28T11:06:51.500Z,7.23
2019-03-28T11:09:19.883Z,7.00
2019-03-28T11:11:48.311Z,4.43
2019-03-28T11:14:16.853Z,7.23
2019-03-28T11:16:48.082Z,5.58
2019-03-28T11:19:15.973Z,5.77
2019-03-28T11:21:45.289Z,8.70
2019-03-28T11:24:14.382Z,6.80
2019-03-28T11:26:43.552Z,7.93
2019-03-28T11:29:11.859Z,5.43
2019-03-28T11:31:46.691Z,6.03
2019-03-28T11:34:10.561Z,5.40
2019-03-28T11:36:38.820Z,5.97
2019-03-28T11:39:07.907Z,5.77
2019-03-28T11:41:36.604Z,4.50
2019-03-28T11:44:05.689Z,5.93
2019-03-28T11:46:34.887Z,6.40
2019-03-28T11:49:03.551Z,4.50
2019-03-28T11:51:31.829Z,5.00
2019-03-28T11:54:00.469Z,4.77
2019-03-28T11:56:28.721Z,3.50
2019-03-28T11:58:56.974Z,3.73
2019-03-28T12:01:25.235Z,3.73
2019-03-28T12:03:53.493Z,4.30
2019-03-28T12:06:21.759Z,3.23
2019-03-28T12:08:50.613Z,3.20
2019-03-28T12:11:19.892Z,3.20
2019-03-28T12:13:48.136Z,3.07
2019-03-28T12:16:17.305Z,3.00
2019-03-28T12:18:47.198Z,3.17
2019-03-28T12:21:15.437Z,1.77
2019-03-28T12:23:43.688Z,2.53
2019-03-28T12:26:12.293Z,3.07
2019-03-28T12:28:41.113Z,2.67
2019-03-28T12:31:09.370Z,1.83
2019-03-28T12:33:37.653Z,2.37
2019-03-28T12:36:05.939Z,2.57
2019-03-28T12:38:34.159Z,3.27
2019-03-28T12:41:02.415Z,2.57
2019-03-28T12:43:30.712Z,3.10
2019-03-28T12:45:58.960Z,2.57
2019-03-28T12:48:27.200Z,3.20
2019-03-28T12:50:58.967Z,2.77
2019-03-28T12:53:25.530Z,3.40
2019-03-28T12:55:53.789Z,2.97
2019-03-28T12:58:22.489Z,3.50
2019-03-28T13:00:50.957Z,4.27
2019-03-28T13:03:19.217Z,4.53
2019-03-28T13:05:47.452Z,4.30
2019-03-28T13:08:15.746Z,4.33
2019-03-28T13:10:44.001Z,3.90
2019-03-28T13:13:12.305Z,3.67
2019-03-28T13:15:40.565Z,4.13
2019-03-28T13:18:09.524Z,4.10
2019-03-28T13:20:38.169Z,3.57
2019-03-28T13:23:06.427Z,3.63
2019-03-28T13:25:34.649Z,4.10
2019-03-28T13:28:03.006Z,4.20
2019-03-28T13:30:31.276Z,3.57
2019-03-28T13:33:00.120Z,3.30
2019-03-28T13:35:28.380Z,2.97
2019-03-28T13:37:57.287Z,3.33
2019-03-28T13:40:26.510Z,3.07
2019-03-28T13:42:55.447Z,4.03
2019-03-28T13:45:24.582Z,3.10
2019-03-28T13:47:56.514Z,2.97
2019-03-28T13:50:25.416Z,3.83
2019-03-28T13:52:54.306Z,3.33
2019-03-28T13:55:23.279Z,3.27
2019-03-28T13:58:06.846Z,4.30
2019-03-28T14:00:48.924Z,4.10
2019-03-28T14:03:15.923Z,2.67
2019-03-28T14:05:44.154Z,3.60
2019-03-28T14:08:12.460Z,3.17
2019-03-28T14:10:40.768Z,3.33
2019-03-28T14:13:09.042Z,3.27
2019-03-28T14:15:37.317Z,2.20
2019-03-28T14:18:05.570Z,2.33
2019-03-28T14:20:33.845Z,2.70
2019-03-28T14:23:02.160Z,2.37
2019-03-28T14:25:30.365Z,2.30
2019-03-28T14:27:58.629Z,2.70
2019-03-28T14:30:26.958Z,2.57
2019-03-28T14:33:05.169Z,1.90
2019-03-28T14:35:25.275Z,2.50
2019-03-28T14:37:53.528Z,3.10
2019-03-28T14:40:21.773Z,2.37
2019-03-28T14:42:50.045Z,2.40
2019-03-28T14:45:18.353Z,2.57
2019-03-28T14:47:46.632Z,2.20
2019-03-28T14:50:20.084Z,1.93
2019-03-28T14:52:48.335Z,1.70
2019-03-28T14:55:16.572Z,2.10
2019-03-28T14:57:45.223Z,2.33
2019-03-28T15:00:25.564Z,2.33
2019-03-28T15:02:53.850Z,1.90
2019-03-28T15:05:22.141Z,1.90
2019-03-28T15:07:50.938Z,2.00
2019-03-28T15:10:19.819Z,1.77
2019-03-28T15:12:48.105Z,1.90
2019-03-28T15:15:16.370Z,1.93
2019-03-28T15:17:45.106Z,2.30
2019-03-28T15:20:13.692Z,2.00
2019-03-28T15:22:41.916Z,1.83
2019-03-28T15:25:10.377Z,2.23
2019-03-28T15:27:38.576Z,1.53
2019-03-28T15:30:07.333Z,1.83
2019-03-28T15:32:35.602Z,1.93
2019-03-28T15:35:04.113Z,2.17
2019-03-28T15:37:35.039Z,2.00
2019-03-28T15:40:03.762Z,1.97
2019-03-28T15:42:32.371Z,1.90
2019-03-28T15:45:00.695Z,1.97
2019-03-28T15:47:29.000Z,2.03
2019-03-28T15:49:57.636Z,1.73
2019-03-28T15:52:27.414Z,2.00
2019-03-28T15:54:55.983Z,1.97
2019-03-28T15:57:24.252Z,2.00
2019-03-28T15:59:52.516Z,1.77
2019-03-28T16:02:20.826Z,2.20
2019-03-28T16:04:49.064Z,1.73
2019-03-28T16:07:17.308Z,1.90
2019-03-28T16:09:46.657Z,1.90
2019-03-28T16:12:15.080Z,2.00
2019-03-28T16:14:43.417Z,2.10
2019-03-28T16:17:11.731Z,1.87
2019-03-28T16:19:40.044Z,2.23
2019-03-28T16:22:08.637Z,1.83
2019-03-28T16:24:36.878Z,2.40
2019-03-28T16:27:05.118Z,2.00
2019-03-28T16:29:33.896Z,2.27
2019-03-28T16:32:02.337Z,2.07
2019-03-28T16:34:30.635Z,1.73
2019-03-28T16:36:58.902Z,2.50
2019-03-28T16:39:30.067Z,1.50
2019-03-28T16:41:58.352Z,2.20
2019-03-28T16:44:26.962Z,2.20
2019-03-28T16:46:55.260Z,2.10
2019-03-28T16:49:23.499Z,1.70
2019-03-28T16:51:51.827Z,2.50
2019-03-28T16:54:20.372Z,1.80
2019-03-28T16:56:48.792Z,2.47
2019-03-28T16:59:17.053Z,2.23
2019-03-28T17:01:45.417Z,1.77
2019-03-28T17:04:20.538Z,2.50
2019-03-28T17:06:43.767Z,2.30
2019-03-28T17:09:12.044Z,3.07
2019-03-28T17:11:40.347Z,2.43
2019-03-28T17:14:08.557Z,2.97
2019-03-28T17:16:36.842Z,2.83
2019-03-28T17:19:05.296Z,2.73
2019-03-28T17:21:33.531Z,2.50
2019-03-28T17:24:01.792Z,3.13
2019-03-28T17:26:30.109Z,2.73
2019-03-28T17:28:58.358Z,2.60
2019-03-28T17:31:28.399Z,2.90
2019-03-28T17:33:57.769Z,2.70
2019-03-28T17:36:27.014Z,2.83
2019-03-28T17:38:55.485Z,3.53
2019-03-28T17:41:23.705Z,3.40
2019-03-28T17:43:52.110Z,3.13
2019-03-28T17:46:20.344Z,3.27
2019-03-28T17:48:48.606Z,3.17
2019-03-28T17:51:16.829Z,3.30
2019-03-28T17:53:45.648Z,3.77
2019-03-28T17:56:14.126Z,3.73
2019-03-28T17:58:42.359Z,2.77
2019-03-28T18:01:10.700Z,3.13
2019-03-28T18:03:38.928Z,3.20
2019-03-28T18:06:07.148Z,3.17
2019-03-28T18:08:35.396Z,2.97
2019-03-28T18:11:03.627Z,3.17
2019-03-28T18:13:31.906Z,3.20
2019-03-28T18:16:00.132Z,4.60
2019-03-28T18:18:28.408Z,3.43
2019-03-28T18:20:56.686Z,3.53
2019-03-28T18:23:25.088Z,2.97
2019-03-28T18:25:53.654Z,4.30
2019-03-28T18:28:25.192Z,4.07
2019-03-28T18:30:54.036Z,3.47
2019-03-28T18:33:23.236Z,4.97
2019-03-28T18:35:52.886Z,25.23
2019-03-28T18:38:21.658Z,24.67
2019-03-28T18:40:51.173Z,18.23
2019-03-28T18:43:20.008Z,5.57
2019-03-28T18:45:48.487Z,4.83
2019-03-28T18:48:27.307Z,4.93
2019-03-28T18:50:46.889Z,6.40
2019-03-28T18:53:15.952Z,21.17
2019-03-28T18:55:44.993Z,8.83
2019-03-28T18:58:13.285Z,5.23
2019-03-28T19:00:43.772Z,6.08
2019-03-28T19:03:12.439Z,5.40
2019-03-28T19:05:40.977Z,5.62
2019-03-28T19:08:09.996Z,6.30
2019-03-28T19:10:39.135Z,5.53
2019-03-28T19:13:07.812Z,5.80
2019-03-28T19:15:37.260Z,5.43
2019-03-28T19:18:07.175Z,5.70
2019-03-28T19:20:35.984Z,4.60
2019-03-28T19:23:07.189Z,5.00
2019-03-28T19:25:34.774Z,6.43
2019-03-28T19:28:07.497Z,6.00
2019-03-28T19:30:34.541Z,7.60
2019-03-28T19:33:06.497Z,7.97
2019-03-28T19:35:34.929Z,6.50
2019-03-28T19:38:03.729Z,6.90
2019-03-28T19:40:33.262Z,5.83
2019-03-28T19:43:01.513Z,6.10
2019-03-28T19:45:35.804Z,7.03
2019-03-28T19:48:05.670Z,6.33
2019-03-28T19:50:34.077Z,8.00
2019-03-28T19:53:03.971Z,6.80
2019-03-28T19:55:32.256Z,8.37
2019-03-28T19:58:00.540Z,7.47
2019-03-28T20:00:28.811Z,9.10
2019-03-28T20:03:07.053Z,8.33
2019-03-28T20:05:46.980Z,8.43
2019-03-28T20:08:15.572Z,7.50
2019-03-28T20:10:35.509Z,7.50
2019-03-28T20:13:05.366Z,7.97
2019-03-28T20:15:34.006Z,9.23
2019-03-28T20:18:02.760Z,9.73
2019-03-28T20:20:31.015Z,25.50
2019-03-28T20:22:59.387Z,32.03
2019-03-28T20:25:27.680Z,21.67
2019-03-28T20:27:55.933Z,23.67
2019-03-28T20:30:24.299Z,17.03
2019-03-28T20:32:52.846Z,15.53
2019-03-28T20:35:22.016Z,6.47
2019-03-28T20:37:50.849Z,5.47
2019-03-28T20:40:20.007Z,7.47
2019-03-28T20:42:48.867Z,6.20
2019-03-28T20:45:19.762Z,5.57
2019-03-28T20:47:49.441Z,7.33
2019-03-28T20:50:18.580Z,7.10
2019-03-28T20:52:47.441Z,6.47
2019-03-28T20:55:16.541Z,7.50
2019-03-28T20:57:45.555Z,7.17
2019-03-28T21:00:16.605Z,7.50
2019-03-28T21:02:45.489Z,7.57
2019-03-28T21:05:14.638Z,6.53
2019-03-28T21:07:43.468Z,6.47
2019-03-28T21:10:24.042Z,7.93
2019-03-28T21:12:52.975Z,7.03
2019-03-28T21:15:21.705Z,7.60
2019-03-28T21:17:51.284Z,10.60
2019-03-28T21:20:20.491Z,9.40
2019-03-28T21:22:48.983Z,9.67
2019-03-28T21:25:18.063Z,10.00
2019-03-28T21:27:47.296Z,11.10
2019-03-28T21:30:18.430Z,10.27
2019-03-28T21:32:55.156Z,8.97
2019-03-28T21:35:18.253Z,9.97
2019-03-28T21:37:47.215Z,8.83
2019-03-28T21:40:16.239Z,8.00
2019-03-28T21:42:44.868Z,7.77
2019-03-28T21:45:14.950Z,7.30
2019-03-28T21:47:44.035Z,6.87
2019-03-28T21:50:12.655Z,4.93
2019-03-28T21:52:41.734Z,4.93
2019-03-28T21:55:11.642Z,5.97
2019-03-28T21:57:42.479Z,5.53
2019-03-28T22:00:11.104Z,6.37
2019-03-28T22:02:40.023Z,6.77
2019-03-28T22:05:09.276Z,6.43
2019-03-28T22:07:38.321Z,7.20
2019-03-28T22:10:08.912Z,7.10
2019-03-28T22:12:37.711Z,7.17
2019-03-28T22:15:06.537Z,8.03
2019-03-28T22:17:35.740Z,6.70
2019-03-28T22:20:04.788Z,6.23
2019-03-28T22:22:33.809Z,7.00
2019-03-28T22:25:03.219Z,7.90
2019-03-28T22:27:31.998Z,7.60
2019-03-28T22:30:00.716Z,8.20
2019-03-28T22:32:29.471Z,7.13
2019-03-28T22:34:58.163Z,7.43
2019-03-28T22:37:27.437Z,6.83
2019-03-28T22:39:56.955Z,7.23
2019-03-28T22:42:26.059Z,6.87
2019-03-28T22:44:55.270Z,6.13
2019-03-28T22:47:23.909Z,7.03
2019-03-28T22:49:52.783Z,6.37
2019-03-28T22:52:21.725Z,7.20
2019-03-28T22:54:50.927Z,6.23
2019-03-28T22:57:19.592Z,6.90
2019-03-28T22:59:48.401Z,6.70
2019-03-28T23:02:17.659Z,6.20
2019-03-28T23:04:46.699Z,6.17
2019-03-28T23:07:15.688Z,7.30
2019-03-28T23:09:44.895Z,6.20
2019-03-28T23:12:13.873Z,7.13
2019-03-28T23:14:42.552Z,6.33
2019-03-28T23:17:11.347Z,6.43
2019-03-28T23:19:40.343Z,7.83
2019-03-28T23:22:08.936Z,6.90
2019-03-28T23:24:39.044Z,8.00
2019-03-28T23:27:08.760Z,9.17
2019-03-28T23:29:37.751Z,10.07
2019-03-28T23:32:06.864Z,11.43
2019-03-28T23:34:35.855Z,11.27
2019-03-28T23:37:04.492Z,10.70
2019-03-28T23:39:33.543Z,9.87
2019-03-28T23:42:04.368Z,10.27
2019-03-28T23:44:33.236Z,9.27
2019-03-28T23:47:03.747Z,10.33
2019-03-28T23:49:32.513Z,9.27
2019-03-28T23:52:01.414Z,8.23
2019-03-28T23:54:30.036Z,9.50
2019-03-28T23:56:59.027Z,14.23
2019-03-28T23:59:28.353Z,13.63
